Time;durP1;ratioP1;P1;durP2;ratioP2;P2;SDS_P1;SDS_P2;PMS_P1;PMS_P2;Temp;Humidity;BMP_temperature;BMP_pressure;BME280_temperature;BME280_humidity;BME280_pressure;Samples;Min_cycle;Max_cycle;Signal;HPM_P1;HPM_P2
2021/12/31 00:01:26;;;;;;;2.97;1.97;;;13.10;99.90;;;;;;5009887;28;20462;-69
2021/12/31 00:03:53;;;;;;;2.80;1.40;;;13.10;99.90;;;;;;5019298;28;20942;-72
2021/12/31 00:06:20;;;;;;;4.00;1.90;;;13.10;99.90;;;;;;5019945;28;20979;-70
2021/12/31 00:08:46;;;;;;;2.20;1.33;;;13.10;99.90;;;;;;5012983;28;20461;-70
2021/12/31 00:11:13;;;;;;;3.17;1.60;;;13.20;99.90;;;;;;5008493;28;20492;-70
2021/12/31 00:13:41;;;;;;;3.47;1.80;;;13.10;99.90;;;;;;5007954;28;20455;-71
2021/12/31 00:16:08;;;;;;;5.73;1.73;;;13.20;99.90;;;;;;5018326;28;20482;-71
2021/12/31 00:18:35;;;;;;;2.47;1.10;;;13.20;99.90;;;;;;5011299;28;20538;-70
2021/12/31 00:21:03;;;;;;;3.80;1.57;;;13.20;99.90;;;;;;5007851;28;20484;-71
2021/12/31 00:23:30;;;;;;;2.53;1.47;;;13.20;99.90;;;;;;5008316;28;20455;-70
2021/12/31 00:25:57;;;;;;;2.53;1.40;;;13.20;99.90;;;;;;5007118;28;20450;-68
2021/12/31 00:28:23;;;;;;;3.23;1.53;;;13.20;99.90;;;;;;5008143;28;20604;-69
2021/12/31 00:30:54;;;;;;;3.73;1.77;;;13.20;99.90;;;;;;5008094;28;20486;-70
2021/12/31 00:33:21;;;;;;;4.33;1.23;;;13.20;99.90;;;;;;5007878;28;20944;-70
2021/12/31 00:35:48;;;;;;;3.23;1.20;;;13.20;99.90;;;;;;5007657;28;20466;-69
2021/12/31 00:38:15;;;;;;;2.70;1.10;;;13.10;99.90;;;;;;5007424;28;20456;-70
2021/12/31 00:40:42;;;;;;;3.60;1.30;;;13.10;99.90;;;;;;5008396;28;20518;-69
2021/12/31 00:43:10;;;;;;;3.10;1.07;;;13.10;99.90;;;;;;5007962;28;20453;-69
2021/12/31 00:45:40;;;;;;;3.20;1.83;;;13.10;99.90;;;;;;5011562;28;21356;-70
2021/12/31 00:48:10;;;;;;;2.70;1.90;;;13.20;99.90;;;;;;5007673;28;20478;-71
2021/12/31 00:50:37;;;;;;;3.53;2.37;;;13.20;99.90;;;;;;5007793;28;21114;-70
2021/12/31 00:53:05;;;;;;;4.03;2.00;;;13.30;99.90;;;;;;5007729;28;20462;-69
2021/12/31 00:55:32;;;;;;;3.50;1.97;;;13.20;99.90;;;;;;5007778;28;20463;-70
2021/12/31 00:57:59;;;;;;;3.47;1.80;;;13.30;99.90;;;;;;5008306;28;20470;-70
2021/12/31 01:00:26;;;;;;;2.60;1.40;;;13.20;99.90;;;;;;5008105;28;20450;-71
2021/12/31 01:02:53;;;;;;;2.70;1.57;;;13.20;99.90;;;;;;5007841;28;20528;-70
2021/12/31 01:05:21;;;;;;;3.00;1.30;;;13.20;99.90;;;;;;5007268;28;21201;-68
2021/12/31 01:07:48;;;;;;;3.60;1.50;;;13.20;99.90;;;;;;5006895;28;20917;-70
2021/12/31 01:10:17;;;;;;;2.63;1.30;;;13.20;99.90;;;;;;5006893;28;20484;-70
2021/12/31 01:12:45;;;;;;;2.60;1.53;;;13.10;99.90;;;;;;5007175;28;20450;-70
2021/12/31 01:15:22;;;;;;;3.90;1.20;;;13.10;99.90;;;;;;5013228;28;20541;-70
2021/12/31 01:18:16;;;;;;;3.90;1.77;;;13.00;99.90;;;;;;5013488;28;20470;-70
2021/12/31 01:20:44;;;;;;;2.33;1.27;;;12.90;99.90;;;;;;5007340;28;20462;-69
2021/12/31 01:23:11;;;;;;;3.80;1.33;;;13.00;99.90;;;;;;5008376;28;20816;-69
2021/12/31 01:25:38;;;;;;;3.50;1.57;;;13.00;99.90;;;;;;5007115;28;20454;-69
2021/12/31 01:28:06;;;;;;;2.43;1.37;;;13.00;99.90;;;;;;5008977;28;20547;-70
2021/12/31 01:30:33;;;;;;;2.80;1.40;;;13.10;99.90;;;;;;5008260;28;20482;-69
2021/12/31 01:32:59;;;;;;;2.90;1.57;;;13.10;99.90;;;;;;5008362;28;20472;-69
2021/12/31 01:35:26;;;;;;;3.33;1.30;;;13.10;99.90;;;;;;5007285;28;20557;-69
2021/12/31 01:37:55;;;;;;;2.30;1.40;;;13.00;99.90;;;;;;5008768;28;21011;-70
2021/12/31 01:40:21;;;;;;;3.77;1.47;;;13.00;99.90;;;;;;5009597;28;20449;-70
2021/12/31 01:42:48;;;;;;;2.60;1.40;;;12.90;99.90;;;;;;5008441;28;20443;-70
2021/12/31 01:45:19;;;;;;;3.17;1.30;;;12.90;99.90;;;;;;5008409;28;20446;-70
2021/12/31 01:47:57;;;;;;;2.80;1.43;;;12.90;99.90;;;;;;5008286;28;20473;-69
2021/12/31 01:50:25;;;;;;;2.93;1.30;;;12.80;99.90;;;;;;5008880;28;20500;-69
2021/12/31 01:52:53;;;;;;;3.10;1.60;;;12.70;99.90;;;;;;5008341;28;20537;-69
2021/12/31 01:55:23;;;;;;;2.73;1.27;;;12.60;99.90;;;;;;5008176;28;20447;-69
2021/12/31 01:57:50;;;;;;;2.47;1.33;;;12.60;99.90;;;;;;5008707;28;20932;-69
2021/12/31 02:00:17;;;;;;;3.27;1.63;;;12.60;99.90;;;;;;5008415;28;20452;-69
2021/12/31 02:02:46;;;;;;;4.00;1.50;;;12.60;99.90;;;;;;5008685;28;20956;-69
2021/12/31 02:05:14;;;;;;;3.07;1.50;;;12.50;99.90;;;;;;5008384;28;20560;-69
2021/12/31 02:07:41;;;;;;;5.07;1.60;;;12.60;99.90;;;;;;5008155;28;20554;-69
2021/12/31 02:10:10;;;;;;;2.37;1.60;;;12.50;99.90;;;;;;5007856;28;20492;-69
2021/12/31 02:12:42;;;;;;;3.07;1.50;;;12.40;99.90;;;;;;5008203;28;21272;-69
2021/12/31 02:15:10;;;;;;;2.77;1.80;;;12.40;99.90;;;;;;5007837;28;20450;-70
2021/12/31 02:17:37;;;;;;;3.30;1.60;;;12.30;99.90;;;;;;5008292;28;20561;-69
2021/12/31 02:20:07;;;;;;;3.80;1.50;;;12.30;99.90;;;;;;5008409;28;20446;-69
2021/12/31 02:22:38;;;;;;;2.43;1.37;;;12.20;99.90;;;;;;5008219;28;20450;-69
2021/12/31 02:25:06;;;;;;;2.40;1.57;;;12.10;99.90;;;;;;5008956;28;20461;-69
2021/12/31 02:27:38;;;;;;;2.30;1.37;;;12.00;99.90;;;;;;5012019;28;20905;-69
2021/12/31 02:30:06;;;;;;;2.23;1.30;;;11.90;99.90;;;;;;5012112;28;20936;-69
2021/12/31 02:32:33;;;;;;;3.00;1.50;;;11.90;99.90;;;;;;5012015;28;20454;-70
2021/12/31 02:35:00;;;;;;;2.87;1.50;;;11.90;99.90;;;;;;5011698;28;20462;-69
2021/12/31 02:37:29;;;;;;;2.50;1.30;;;11.80;99.90;;;;;;5011814;28;20566;-69
2021/12/31 02:39:56;;;;;;;2.87;1.53;;;11.70;99.90;;;;;;5012026;28;20514;-69
2021/12/31 02:42:23;;;;;;;3.07;1.57;;;11.70;99.90;;;;;;5012009;28;20460;-69
2021/12/31 02:44:51;;;;;;;5.63;1.63;;;11.50;99.90;;;;;;5011336;28;20942;-70
2021/12/31 02:47:18;;;;;;;2.43;1.47;;;11.50;99.90;;;;;;5011719;28;20477;-69
2021/12/31 02:49:47;;;;;;;4.00;2.23;;;11.40;99.90;;;;;;5011898;28;20453;-69
2021/12/31 02:52:16;;;;;;;5.30;1.80;;;11.30;99.90;;;;;;5011657;28;21082;-69
2021/12/31 02:54:48;;;;;;;3.60;1.80;;;11.30;99.90;;;;;;5011633;28;20821;-69
2021/12/31 02:57:15;;;;;;;2.80;1.60;;;11.20;99.90;;;;;;5012051;28;20466;-69
2021/12/31 02:59:44;;;;;;;5.30;1.70;;;11.20;99.90;;;;;;5011500;28;20454;-69
2021/12/31 03:02:12;;;;;;;2.73;1.53;;;11.10;99.90;;;;;;5011547;28;20966;-69
2021/12/31 03:04:40;;;;;;;4.07;1.47;;;11.10;99.90;;;;;;5010854;28;20540;-69
2021/12/31 03:07:10;;;;;;;3.67;2.57;;;11.00;99.90;;;;;;5011517;28;20568;-70
2021/12/31 03:09:43;;;;;;;3.60;1.70;;;11.00;99.90;;;;;;5011646;28;20462;-69
2021/12/31 03:12:13;;;;;;;2.60;1.30;;;10.90;99.90;;;;;;5011319;28;20485;-70
2021/12/31 03:14:42;;;;;;;2.63;1.67;;;10.80;99.90;;;;;;5011270;28;20449;-69
2021/12/31 03:17:09;;;;;;;5.03;2.60;;;10.80;99.90;;;;;;5011113;28;20458;-69
2021/12/31 03:19:37;;;;;;;4.23;1.60;;;10.80;99.90;;;;;;5011500;28;20449;-69
2021/12/31 03:22:04;;;;;;;3.37;1.47;;;10.80;99.90;;;;;;5011259;28;20442;-69
2021/12/31 03:24:31;;;;;;;2.83;1.70;;;10.80;99.90;;;;;;5011183;28;20452;-68
2021/12/31 03:26:58;;;;;;;2.63;1.60;;;10.90;99.90;;;;;;5012266;28;20489;-70
2021/12/31 03:29:27;;;;;;;3.17;1.93;;;10.90;99.90;;;;;;5013194;28;20448;-69
2021/12/31 03:31:54;;;;;;;2.70;1.50;;;10.90;99.90;;;;;;5013115;28;20562;-69
2021/12/31 03:34:21;;;;;;;2.80;1.83;;;10.80;99.90;;;;;;5012623;28;20457;-69
2021/12/31 03:36:48;;;;;;;3.70;1.63;;;10.80;99.90;;;;;;5012040;28;20467;-69
2021/12/31 03:39:14;;;;;;;2.53;1.53;;;10.70;99.90;;;;;;5012342;28;20454;-69
2021/12/31 03:41:43;;;;;;;3.17;1.80;;;10.60;99.90;;;;;;5012742;28;20456;-69
2021/12/31 03:44:10;;;;;;;3.50;1.90;;;10.50;99.90;;;;;;5012145;28;20462;-68
2021/12/31 03:46:39;;;;;;;2.20;1.27;;;10.30;99.90;;;;;;5011613;28;20473;-68
2021/12/31 03:49:05;;;;;;;3.40;1.73;;;10.20;99.90;;;;;;5012184;28;20446;-69
2021/12/31 03:51:32;;;;;;;2.90;1.80;;;10.10;99.90;;;;;;5012365;28;20488;-69
2021/12/31 03:53:59;;;;;;;2.77;2.03;;;10.10;99.90;;;;;;5012443;28;20446;-69
2021/12/31 03:56:30;;;;;;;2.90;1.70;;;10.00;99.90;;;;;;5010343;28;20466;-69
2021/12/31 03:58:58;;;;;;;3.80;2.23;;;9.90;99.90;;;;;;5010785;28;20480;-68
2021/12/31 04:01:25;;;;;;;3.70;2.20;;;9.70;99.90;;;;;;5010766;28;20478;-71
2021/12/31 04:03:53;;;;;;;4.37;1.90;;;9.60;99.90;;;;;;5010717;28;20962;-71
2021/12/31 04:06:21;;;;;;;3.10;1.90;;;9.50;99.90;;;;;;5010019;28;20482;-70
2021/12/31 04:08:47;;;;;;;2.90;2.00;;;9.50;99.90;;;;;;5010514;28;20948;-70
2021/12/31 04:11:14;;;;;;;4.37;2.10;;;9.50;99.90;;;;;;5010156;28;20493;-70
2021/12/31 04:13:41;;;;;;;3.03;2.13;;;9.40;99.90;;;;;;5010058;28;20454;-70
2021/12/31 04:16:08;;;;;;;4.00;1.80;;;9.50;99.90;;;;;;5010048;28;20818;-70
2021/12/31 04:18:35;;;;;;;3.93;2.20;;;9.50;99.90;;;;;;5010601;28;20452;-70
2021/12/31 04:21:03;;;;;;;2.97;2.00;;;9.50;99.90;;;;;;5010457;28;20443;-69
2021/12/31 04:23:33;;;;;;;6.07;2.43;;;9.40;99.90;;;;;;5009826;28;20536;-70
2021/12/31 04:26:00;;;;;;;4.90;2.00;;;9.50;99.90;;;;;;5009704;28;21415;-70
2021/12/31 04:28:28;;;;;;;2.93;1.63;;;9.40;99.90;;;;;;5010225;28;20439;-70
2021/12/31 04:30:56;;;;;;;3.93;1.93;;;9.40;99.90;;;;;;5010017;28;20839;-70
2021/12/31 04:33:23;;;;;;;4.00;2.00;;;9.20;99.90;;;;;;5009874;28;20504;-70
2021/12/31 04:35:50;;;;;;;3.73;2.07;;;9.10;99.90;;;;;;5009667;28;20455;-70
2021/12/31 04:38:18;;;;;;;3.83;2.17;;;9.00;99.90;;;;;;5010491;28;21086;-69
2021/12/31 04:40:45;;;;;;;6.07;2.40;;;8.90;99.90;;;;;;5010848;28;20454;-69
2021/12/31 04:43:12;;;;;;;4.00;2.27;;;8.80;99.90;;;;;;5010322;28;20457;-69
2021/12/31 04:45:39;;;;;;;4.27;2.10;;;8.80;99.90;;;;;;5009808;28;20548;-70
2021/12/31 04:48:06;;;;;;;2.80;2.30;;;8.60;99.90;;;;;;5010077;28;20469;-70
2021/12/31 04:50:33;;;;;;;5.63;3.10;;;8.70;99.90;;;;;;5009922;28;20454;-70
2021/12/31 04:53:00;;;;;;;3.87;2.63;;;8.70;99.90;;;;;;5009754;28;20435;-70
2021/12/31 04:55:28;;;;;;;3.33;2.07;;;8.80;99.90;;;;;;5009155;28;20485;-70
2021/12/31 04:57:55;;;;;;;4.03;2.83;;;8.70;99.90;;;;;;5010016;28;20497;-70
2021/12/31 05:00:21;;;;;;;4.30;2.90;;;8.80;99.90;;;;;;5010530;28;20449;-70
2021/12/31 05:02:48;;;;;;;4.40;2.37;;;8.70;99.90;;;;;;5010489;28;21114;-70
2021/12/31 05:05:15;;;;;;;4.13;2.27;;;8.60;99.90;;;;;;5008923;28;20542;-70
2021/12/31 05:07:42;;;;;;;4.73;2.43;;;8.50;99.90;;;;;;5008771;28;20466;-70
2021/12/31 05:10:10;;;;;;;5.17;2.53;;;8.40;99.90;;;;;;5009708;28;20446;-71
2021/12/31 05:12:38;;;;;;;4.70;2.40;;;8.30;99.90;;;;;;5009721;28;20489;-69
2021/12/31 05:15:08;;;;;;;4.03;2.60;;;8.30;99.90;;;;;;5009748;28;20454;-70
2021/12/31 05:17:35;;;;;;;3.77;2.40;;;8.30;99.90;;;;;;5009330;28;20469;-70
2021/12/31 05:20:03;;;;;;;5.10;3.00;;;8.30;99.90;;;;;;5008982;28;21262;-69
2021/12/31 05:22:29;;;;;;;4.10;2.43;;;8.20;99.90;;;;;;5009043;28;20457;-70
2021/12/31 05:24:56;;;;;;;3.90;2.10;;;8.20;99.90;;;;;;5008478;28;20447;-70
2021/12/31 05:27:23;;;;;;;3.00;2.07;;;8.10;99.90;;;;;;5008956;28;20502;-69
2021/12/31 05:29:51;;;;;;;3.53;2.27;;;8.10;99.90;;;;;;5008808;28;20457;-69
2021/12/31 05:32:18;;;;;;;5.90;2.80;;;8.00;99.90;;;;;;5008723;28;20482;-69
2021/12/31 05:34:45;;;;;;;3.60;2.40;;;7.90;99.90;;;;;;5007872;28;20458;-69
2021/12/31 05:37:12;;;;;;;3.30;2.10;;;7.80;99.90;;;;;;5008729;28;20477;-70
2021/12/31 05:39:39;;;;;;;4.23;2.83;;;7.70;99.90;;;;;;5008856;28;20450;-70
2021/12/31 05:42:06;;;;;;;4.67;2.80;;;7.60;99.90;;;;;;5008796;28;20443;-70
2021/12/31 05:44:33;;;;;;;3.73;2.40;;;7.60;99.90;;;;;;5008743;28;20850;-69
2021/12/31 05:47:01;;;;;;;4.70;2.80;;;7.50;99.90;;;;;;5008578;28;20470;-69
2021/12/31 05:49:29;;;;;;;5.10;3.07;;;7.40;99.90;;;;;;5008561;28;20454;-69
2021/12/31 05:51:55;;;;;;;5.60;3.20;;;7.40;99.90;;;;;;5008458;28;20492;-69
2021/12/31 05:54:22;;;;;;;4.77;2.53;;;7.40;99.90;;;;;;5008947;28;20454;-70
2021/12/31 05:56:51;;;;;;;4.70;3.13;;;7.40;99.90;;;;;;5008314;28;20818;-70
2021/12/31 05:59:18;;;;;;;6.20;2.97;;;7.30;99.90;;;;;;5008523;28;21035;-70
2021/12/31 06:01:44;;;;;;;4.80;3.00;;;7.30;99.90;;;;;;5007901;28;20527;-70
2021/12/31 06:04:13;;;;;;;6.97;3.40;;;7.30;99.90;;;;;;5008674;28;20457;-70
2021/12/31 06:06:39;;;;;;;5.27;3.30;;;7.40;99.90;;;;;;5008379;28;20551;-69
2021/12/31 06:09:07;;;;;;;5.07;2.97;;;7.30;99.90;;;;;;5008220;28;20450;-70
2021/12/31 06:11:35;;;;;;;6.53;4.03;;;7.20;99.90;;;;;;5010543;28;20497;-70
2021/12/31 06:14:04;;;;;;;5.43;3.97;;;7.20;99.90;;;;;;5010975;28;20457;-70
2021/12/31 06:16:37;;;;;;;5.93;4.03;;;7.20;99.90;;;;;;5010916;28;20880;-69
2021/12/31 06:19:04;;;;;;;5.57;3.47;;;7.20;99.90;;;;;;5010065;28;20549;-69
2021/12/31 06:21:33;;;;;;;6.47;3.73;;;7.10;99.90;;;;;;5010766;28;20457;-69
2021/12/31 06:24:00;;;;;;;4.40;3.40;;;7.10;99.90;;;;;;5008815;28;20803;-69
2021/12/31 06:26:27;;;;;;;6.57;3.67;;;7.10;99.90;;;;;;5008073;28;20474;-69
2021/12/31 06:28:54;;;;;;;5.63;3.40;;;7.10;99.90;;;;;;5008157;28;20446;-69
2021/12/31 06:31:21;;;;;;;7.37;4.10;;;7.10;99.90;;;;;;5008329;28;20459;-70
2021/12/31 06:33:48;;;;;;;5.57;4.37;;;7.00;99.90;;;;;;5008465;28;20454;-69
2021/12/31 06:36:15;;;;;;;11.93;4.83;;;7.10;99.90;;;;;;5007833;28;20474;-69
2021/12/31 06:38:44;;;;;;;6.03;4.33;;;7.30;99.90;;;;;;5008514;28;20446;-69
2021/12/31 06:41:11;;;;;;;6.80;4.20;;;7.30;99.90;;;;;;5008299;28;20515;-70
2021/12/31 06:43:38;;;;;;;5.57;4.00;;;7.30;99.90;;;;;;5007989;28;20452;-69
2021/12/31 06:46:05;;;;;;;6.10;3.40;;;7.20;99.90;;;;;;5007554;28;20442;-69
2021/12/31 06:48:31;;;;;;;6.83;4.20;;;7.10;99.90;;;;;;5008050;28;20952;-69
2021/12/31 06:50:58;;;;;;;4.63;3.63;;;7.10;99.90;;;;;;5008082;28;20511;-70
2021/12/31 06:53:25;;;;;;;5.33;4.00;;;7.00;99.90;;;;;;5007814;28;20496;-70
2021/12/31 06:55:53;;;;;;;5.70;4.10;;;7.00;99.90;;;;;;5007387;28;20845;-69
2021/12/31 06:58:20;;;;;;;6.20;4.40;;;7.20;99.90;;;;;;5007610;28;20452;-69
2021/12/31 07:00:47;;;;;;;5.60;4.43;;;7.20;99.90;;;;;;5008055;28;20458;-70
2021/12/31 07:03:14;;;;;;;4.57;3.30;;;7.30;99.90;;;;;;5007675;28;20443;-69
2021/12/31 07:05:42;;;;;;;4.60;3.67;;;7.30;99.90;;;;;;5006996;28;20834;-69
2021/12/31 07:08:09;;;;;;;5.33;3.80;;;7.20;99.90;;;;;;5007162;28;20466;-69
2021/12/31 07:10:36;;;;;;;5.53;4.67;;;7.20;99.90;;;;;;5006945;28;20450;-69
2021/12/31 07:13:10;;;;;;;4.93;3.90;;;7.10;99.90;;;;;;5010791;28;20492;-69
2021/12/31 07:15:39;;;;;;;7.97;3.80;;;7.10;99.90;;;;;;5010382;28;21009;-69
2021/12/31 07:18:06;;;;;;;6.00;4.73;;;7.00;99.90;;;;;;5010711;28;20523;-69
2021/12/31 07:20:33;;;;;;;6.70;4.30;;;7.00;99.90;;;;;;5010702;28;20460;-69
2021/12/31 07:23:04;;;;;;;7.20;5.47;;;7.00;99.90;;;;;;5010698;28;20445;-69
2021/12/31 07:25:32;;;;;;;6.30;4.73;;;7.10;99.90;;;;;;5010137;28;20449;-69
2021/12/31 07:27:58;;;;;;;6.40;4.60;;;7.20;99.90;;;;;;5010653;28;20474;-69
2021/12/31 07:30:27;;;;;;;6.73;4.57;;;7.50;99.90;;;;;;5010580;28;20895;-69
2021/12/31 07:32:54;;;;;;;6.77;3.63;;;7.70;99.90;;;;;;5010306;28;20513;-69
2021/12/31 07:35:21;;;;;;;6.40;4.63;;;7.90;99.90;;;;;;5010085;28;20466;-69
2021/12/31 07:37:47;;;;;;;7.00;4.87;;;8.00;99.90;;;;;;5010217;28;20462;-69
2021/12/31 07:40:24;;;;;;;7.10;3.97;;;8.00;99.90;;;;;;5010701;28;20465;-69
2021/12/31 07:42:50;;;;;;;5.43;4.50;;;7.90;99.90;;;;;;5010283;28;20521;-70
2021/12/31 07:45:17;;;;;;;5.70;4.70;;;7.90;99.90;;;;;;5009989;28;20448;-69
2021/12/31 07:47:46;;;;;;;5.87;4.63;;;7.90;99.90;;;;;;5010291;28;20552;-69
2021/12/31 07:50:13;;;;;;;7.67;5.20;;;8.00;99.90;;;;;;5010067;28;20439;-69
2021/12/31 07:52:49;;;;;;;7.20;5.30;;;8.10;99.90;;;;;;5010536;28;20482;-69
2021/12/31 07:55:15;;;;;;;6.80;5.13;;;8.00;99.90;;;;;;5009625;28;20533;-69
2021/12/31 07:57:42;;;;;;;7.47;4.87;;;7.90;99.90;;;;;;5009953;28;20477;-69
2021/12/31 08:00:10;;;;;;;6.20;4.83;;;7.80;99.90;;;;;;5009640;28;20560;-69
2021/12/31 08:02:37;;;;;;;7.10;4.77;;;7.80;99.90;;;;;;5009735;28;20438;-69
2021/12/31 08:05:06;;;;;;;7.50;4.73;;;7.90;99.90;;;;;;5009460;28;20438;-69
2021/12/31 08:07:33;;;;;;;6.97;5.03;;;8.00;99.90;;;;;;5009872;28;20470;-69
2021/12/31 08:10:00;;;;;;;8.07;5.37;;;8.20;99.90;;;;;;5009721;28;20445;-70
2021/12/31 08:12:27;;;;;;;7.30;5.53;;;8.30;99.90;;;;;;5009444;28;20474;-70
2021/12/31 08:14:54;;;;;;;5.87;5.30;;;8.40;99.90;;;;;;5009300;28;20447;-69
2021/12/31 08:17:20;;;;;;;5.73;5.07;;;8.40;99.90;;;;;;5009201;28;20466;-69
2021/12/31 08:19:47;;;;;;;6.70;4.90;;;8.50;99.90;;;;;;5009733;28;20446;-69
2021/12/31 08:22:16;;;;;;;5.70;4.80;;;8.60;99.90;;;;;;5009099;28;20430;-69
2021/12/31 08:24:42;;;;;;;6.70;5.57;;;8.70;99.90;;;;;;5008819;28;21054;-69
2021/12/31 08:27:09;;;;;;;7.30;5.10;;;8.80;99.90;;;;;;5009125;28;20505;-70
2021/12/31 08:29:36;;;;;;;6.90;5.17;;;8.80;99.90;;;;;;5009369;28;20457;-69
2021/12/31 08:32:03;;;;;;;7.63;4.97;;;8.90;99.90;;;;;;5009232;28;20492;-69
2021/12/31 08:34:30;;;;;;;8.70;5.40;;;9.00;99.90;;;;;;5008625;28;20546;-69
2021/12/31 08:36:57;;;;;;;7.83;5.90;;;9.10;99.90;;;;;;5009177;28;20470;-69
2021/12/31 08:39:26;;;;;;;7.83;5.00;;;9.20;99.90;;;;;;5008968;28;20826;-70
2021/12/31 08:41:53;;;;;;;6.50;5.00;;;9.30;99.90;;;;;;5008997;28;20457;-69
2021/12/31 08:44:20;;;;;;;6.83;5.37;;;9.40;99.90;;;;;;5008596;28;20551;-69
2021/12/31 08:46:47;;;;;;;5.60;5.00;;;9.50;99.90;;;;;;5008526;28;20466;-69
2021/12/31 08:49:15;;;;;;;6.80;4.83;;;9.60;99.90;;;;;;5008957;28;20448;-69
2021/12/31 08:51:42;;;;;;;5.20;4.50;;;9.70;99.90;;;;;;5009239;28;21080;-70
2021/12/31 08:54:09;;;;;;;5.60;5.00;;;9.80;99.90;;;;;;5008912;28;20913;-70
2021/12/31 08:56:37;;;;;;;5.63;4.47;;;9.90;99.90;;;;;;5008460;28;20482;-71
2021/12/31 08:59:04;;;;;;;6.50;4.77;;;10.00;99.90;;;;;;5008692;28;20505;-71
2021/12/31 09:01:32;;;;;;;4.73;3.93;;;10.00;99.90;;;;;;5007771;28;20473;-71
2021/12/31 09:03:58;;;;;;;5.07;3.70;;;10.10;99.90;;;;;;5008238;28;20546;-71
2021/12/31 09:06:25;;;;;;;4.83;3.93;;;10.20;99.90;;;;;;5007123;28;20880;-71
2021/12/31 09:08:52;;;;;;;5.50;3.63;;;10.30;99.90;;;;;;4999991;28;20541;-71
2021/12/31 09:11:19;;;;;;;5.07;3.70;;;10.40;99.90;;;;;;5004905;28;20461;-70
2021/12/31 09:13:48;;;;;;;6.30;4.13;;;10.40;99.90;;;;;;5005260;28;20497;-69
2021/12/31 09:16:16;;;;;;;5.50;4.27;;;10.50;99.90;;;;;;5000090;28;20482;-70
2021/12/31 09:18:43;;;;;;;6.20;3.77;;;10.50;99.90;;;;;;5001653;28;20521;-70
2021/12/31 09:21:10;;;;;;;4.03;3.27;;;10.60;99.90;;;;;;4999414;28;20458;-70
2021/12/31 09:23:37;;;;;;;4.80;3.90;;;10.60;99.90;;;;;;4998765;28;20458;-70
2021/12/31 09:26:04;;;;;;;5.03;3.73;;;10.60;99.90;;;;;;5002547;28;20450;-70
2021/12/31 09:28:31;;;;;;;4.63;3.67;;;10.60;99.90;;;;;;5000759;28;20446;-70
2021/12/31 09:31:01;;;;;;;6.07;4.27;;;10.60;99.90;;;;;;5000387;28;20456;-70
2021/12/31 09:33:29;;;;;;;6.20;4.50;;;10.60;99.90;;;;;;5001475;28;20565;-69
2021/12/31 09:35:56;;;;;;;5.10;4.07;;;10.60;99.90;;;;;;4996916;28;20462;-69
2021/12/31 09:38:23;;;;;;;8.20;5.33;;;10.70;99.90;;;;;;5005823;28;20461;-70
2021/12/31 09:40:49;;;;;;;5.90;4.43;;;10.70;99.90;;;;;;5006827;28;20533;-70
2021/12/31 09:43:16;;;;;;;5.23;4.53;;;10.80;99.90;;;;;;5006915;28;20465;-69
2021/12/31 09:45:47;;;;;;;6.73;4.50;;;10.80;99.90;;;;;;5007564;28;20450;-69
2021/12/31 09:48:16;;;;;;;6.10;4.10;;;10.90;99.90;;;;;;5008088;28;20478;-70
2021/12/31 09:50:45;;;;;;;5.30;4.07;;;11.00;99.90;;;;;;5007693;28;20454;-69
2021/12/31 09:53:14;;;;;;;6.27;4.37;;;11.10;99.90;;;;;;5006631;28;20848;-69
2021/12/31 09:55:44;;;;;;;4.90;3.70;;;11.10;99.90;;;;;;5007235;28;20446;-70
2021/12/31 09:58:12;;;;;;;4.43;3.60;;;11.20;99.90;;;;;;5007915;28;20916;-69
2021/12/31 10:00:42;;;;;;;4.87;4.37;;;11.30;99.90;;;;;;5007834;28;20962;-70
2021/12/31 10:03:13;;;;;;;6.47;3.50;;;11.50;99.90;;;;;;5007376;28;20505;-69
2021/12/31 10:05:43;;;;;;;5.00;3.67;;;11.60;99.90;;;;;;5007202;28;20458;-69
2021/12/31 10:08:17;;;;;;;4.87;3.60;;;11.80;99.90;;;;;;5006214;28;20836;-67
2021/12/31 10:10:44;;;;;;;4.30;3.10;;;12.00;99.90;;;;;;5000625;28;20511;-67
2021/12/31 10:13:11;;;;;;;6.23;3.30;;;12.20;99.90;;;;;;4998519;28;20482;-68
2021/12/31 10:15:40;;;;;;;4.50;3.30;;;12.50;99.90;;;;;;4996678;28;20457;-69
2021/12/31 10:18:12;;;;;;;3.70;3.10;;;12.70;99.90;;;;;;5001935;28;20470;-68
2021/12/31 10:20:50;;;;;;;4.80;2.90;;;13.00;99.90;;;;;;5000502;28;20446;-69
2021/12/31 10:23:19;;;;;;;4.30;3.30;;;13.30;99.90;;;;;;5007452;28;20856;-68
2021/12/31 10:25:46;;;;;;;4.33;3.00;;;13.80;99.90;;;;;;5007465;28;20450;-68
2021/12/31 10:28:15;;;;;;;3.83;2.63;;;14.70;99.90;;;;;;5001722;28;21007;-71
2021/12/31 10:30:43;;;;;;;3.90;2.70;;;15.70;99.90;;;;;;5001098;28;20461;-67
2021/12/31 10:33:11;;;;;;;4.03;2.83;;;16.60;99.90;;;;;;5003700;28;20485;-68
2021/12/31 10:35:40;;;;;;;4.87;3.10;;;16.90;99.90;;;;;;5006336;28;20458;-70
2021/12/31 10:38:11;;;;;;;4.40;2.63;;;17.00;99.90;;;;;;5003673;28;20474;-70
2021/12/31 10:40:41;;;;;;;3.90;3.00;;;17.50;99.90;;;;;;5002394;28;20450;-69
2021/12/31 10:43:10;;;;;;;4.70;3.20;;;18.00;99.90;;;;;;5000057;28;20492;-69
2021/12/31 10:45:37;;;;;;;4.07;3.10;;;18.20;99.90;;;;;;4996157;28;20460;-69
2021/12/31 10:48:09;;;;;;;5.83;2.90;;;18.00;99.90;;;;;;4999300;28;20466;-70
2021/12/31 10:50:37;;;;;;;4.40;3.10;;;17.50;99.90;;;;;;5002650;28;20636;-70
2021/12/31 10:53:10;;;;;;;5.50;3.67;;;17.10;99.90;;;;;;5003223;28;20577;-70
2021/12/31 10:55:44;;;;;;;3.23;2.50;;;16.50;99.90;;;;;;5001361;28;20462;-69
2021/12/31 10:58:12;;;;;;;4.33;2.80;;;15.90;99.90;;;;;;5004167;28;22595;-70
2021/12/31 11:00:41;;;;;;;4.67;3.33;;;15.50;99.90;;;;;;5005300;28;20819;-70
2021/12/31 11:03:09;;;;;;;4.57;3.03;;;15.10;99.90;;;;;;5005223;28;20454;-71
2021/12/31 11:05:36;;;;;;;5.93;3.20;;;14.80;99.90;;;;;;5002692;28;20546;-70
2021/12/31 11:08:06;;;;;;;8.83;3.10;;;14.50;99.90;;;;;;5002836;28;20470;-72
2021/12/31 11:10:36;;;;;;;5.87;3.47;;;14.30;99.90;;;;;;5000499;28;20462;-73
2021/12/31 11:13:10;;;;;;;4.17;3.00;;;14.10;99.90;;;;;;5003907;28;20752;-72
2021/12/31 11:15:37;;;;;;;6.47;3.53;;;14.00;99.90;;;;;;5000035;28;20456;-71
2021/12/31 11:18:05;;;;;;;5.77;3.40;;;13.90;99.90;;;;;;5006578;28;21370;-73
2021/12/31 11:20:33;;;;;;;3.50;2.90;;;13.80;99.90;;;;;;4998959;28;20458;-72
2021/12/31 11:23:01;;;;;;;4.90;2.93;;;13.80;99.90;;;;;;4997325;28;20450;-73
2021/12/31 11:25:29;;;;;;;4.93;3.33;;;13.80;99.90;;;;;;5000983;28;20470;-72
2021/12/31 11:27:57;;;;;;;5.37;3.37;;;13.70;99.90;;;;;;5002179;28;20474;-70
2021/12/31 11:30:37;;;;;;;5.90;4.03;;;13.80;99.90;;;;;;5006524;28;20450;-70
2021/12/31 11:33:09;;;;;;;4.63;4.17;;;13.80;99.90;;;;;;5001620;28;20498;-69
2021/12/31 11:35:42;;;;;;;4.20;3.80;;;13.90;99.90;;;;;;4996761;28;20465;-72
2021/12/31 11:38:14;;;;;;;4.20;3.20;;;13.90;99.90;;;;;;4998340;28;20478;-71
2021/12/31 11:40:45;;;;;;;3.67;3.03;;;14.00;99.90;;;;;;5008574;28;20886;-70
2021/12/31 11:43:30;;;;;;;5.37;3.50;;;14.00;99.90;;;;;;5006693;28;20482;-72
2021/12/31 11:46:33;;;;;;;7.20;3.50;;;14.00;99.90;;;;;;5006295;28;20453;-71
2021/12/31 11:49:02;;;;;;;4.13;3.30;;;14.00;99.90;;;;;;5005782;28;20465;-69
2021/12/31 11:51:34;;;;;;;4.30;3.10;;;14.00;99.90;;;;;;5000207;28;20454;-71
2021/12/31 11:54:17;;;;;;;4.07;2.93;;;14.00;99.90;;;;;;4998103;28;20490;-71
2021/12/31 11:57:01;;;;;;;4.47;3.17;;;14.10;99.90;;;;;;5008259;28;20470;-71
2021/12/31 11:59:39;;;;;;;4.00;2.80;;;14.20;99.90;;;;;;5008890;28;20533;-71
2021/12/31 12:02:09;;;;;;;3.53;2.43;;;14.30;99.90;;;;;;5010479;28;20457;-75
2021/12/31 12:04:38;;;;;;;4.17;2.93;;;14.40;99.90;;;;;;5009468;28;20442;-71
2021/12/31 12:07:06;;;;;;;3.17;2.57;;;14.60;99.90;;;;;;5009715;28;20505;-70
2021/12/31 12:10:11;;;;;;;3.50;2.60;;;14.60;99.90;;;;;;5009696;28;20971;-71
2021/12/31 12:12:39;;;;;;;2.93;1.90;;;14.80;99.90;;;;;;5010059;28;20446;-69
2021/12/31 12:15:33;;;;;;;2.93;2.17;;;14.80;99.90;;;;;;5009821;28;20501;-69
2021/12/31 12:18:06;;;;;;;3.50;2.30;;;14.70;99.90;;;;;;5010196;28;21011;-70
2021/12/31 12:20:35;;;;;;;4.70;2.90;;;14.80;99.90;;;;;;5009882;28;20450;-70
2021/12/31 12:23:10;;;;;;;3.60;2.60;;;14.70;99.90;;;;;;5009872;28;20457;-71
2021/12/31 12:25:37;;;;;;;2.93;2.20;;;14.70;99.90;;;;;;5009075;28;20905;-68
2021/12/31 12:28:07;;;;;;;4.10;2.50;;;14.70;99.90;;;;;;5008717;28;20469;-68
2021/12/31 12:30:35;;;;;;;4.00;2.80;;;14.60;99.90;;;;;;5007324;28;20453;-70
2021/12/31 12:33:16;;;;;;;3.10;2.33;;;14.60;99.90;;;;;;5009474;28;20478;-69
2021/12/31 12:35:44;;;;;;;3.30;2.40;;;14.70;99.90;;;;;;4998193;28;20553;-70
2021/12/31 12:38:13;;;;;;;3.10;2.60;;;14.70;99.90;;;;;;4998338;28;20577;-70
2021/12/31 12:40:41;;;;;;;4.60;2.70;;;14.70;99.90;;;;;;5009449;28;20813;-71
2021/12/31 12:43:14;;;;;;;4.20;3.00;;;14.70;99.90;;;;;;5009085;28;20450;-70
2021/12/31 12:45:41;;;;;;;5.50;3.83;;;14.80;99.90;;;;;;5004262;28;20465;-71
2021/12/31 12:48:10;;;;;;;4.70;3.83;;;14.70;99.90;;;;;;5005547;28;20473;-71
2021/12/31 12:50:38;;;;;;;6.93;4.20;;;14.70;99.90;;;;;;5009125;28;20454;-71
2021/12/31 12:53:06;;;;;;;4.73;3.73;;;14.70;99.90;;;;;;5008183;28;20458;-71
2021/12/31 12:55:33;;;;;;;5.00;4.27;;;14.60;99.90;;;;;;5007222;28;20474;-71
2021/12/31 12:58:01;;;;;;;5.47;4.10;;;14.60;99.90;;;;;;5008381;28;20462;-70